Samui Airport
VTSM : now visible

Airfield :











YOU CAN JOIN US ON...

 
LOGIN :

Register | Disclaimer

   EN    FR    IT 

 









Legend :    VFR   Marginal VFR   IFR   Intensive IFR   Very Intensive IFR
Visi :
Ceiling :
>= 8 km
>= 3000ft
5 to 8 km
1000 to 3000 ft
1500m to 5 km
500 to 1000 ft
800 to 1500m
200 to 500 ft
< 800m
< 200 ft
Symbols :   Thunderstorms  Fog  Heavy snow  Heavy precipitations  Wind > 20 kt






- Airport Elevation : 64 ft
- IATA code : USM


VTSM - Samui

CURRENT METAR :
  • 211100Z VRB02KT 9999 FEW020 BKN100 31/26 Q1008 NOSIG

EXPIRED METARs :
  • 211000Z 30005KT 260V340 9999 FEW020 BKN100 31/26 Q1008 NOSIG
  • 210900Z 29005KT 9999 FEW020 BKN100 32/25 Q1008 NOSIG
  • 210800Z 27008KT 240V310 9999 FEW020 BKN100 34/25 Q1008 NOSIG
  • 210700Z 26007KT 230V300 9999 FEW020 BKN100 33/24 Q1009 NOSIG

TAF TAF VTSM
Valid from the 21 at 06:00 until the 22 at 06:00 UTC


210500Z 2106/2206 14008KT 9999 FEW020 BKN100
PROB40
TEMPO 2106/2110 VRB15G25KT -TSRA FEW016CB SCT018 BKN100
BECMG 2113/2115 00000KT
BECMG 2203/2205 14008KT
VTBB FIR / Asia



MET'MAP, your aeronautical weather chart ! - Copyright ORBIFLY December 2007 - Disclaimer

ORBIFLY MET'MAP TEAM :

Programming & Development : Alexandra Zaïnal
Original concept : Baudouin d'Aumeries
Technical & hardware support : Manuel Goepfert
Assistance : Marc-Olivier Méhu




SOURCES & CREDITS :

   NOAA       Earth
Advisory